Silvis, Illinois
Current Conditions -  °F | °C
As of 2:52 AM on Monday 20 Oct 2014 (Local Time) from KMLI Reporting Station
Clear Clear  
Wind Chill: 51°   Ceiling: Unl
Heat Index: 51°   Visibility: 10mi
Dew Point: 43°   Wind: 8mph
Humidity: 74%   Direction: 250°WSW
Pressure: 29.86"   Gusts: NA
Location:  41.51°N, 90.41°W
Report Text: KMLI 200752Z AUTO 25007KT 10SM CLR 11/06 A2986 RMK AO2 SLP111 T01060061 $
Loading
Personal Weather Stations






























Interactive Weather Map
Tropical Storm Tracking
New forecast layout! Learn more

10-Day Weather Forecast

Advertisements
Track Severe Weather on mobile